Time;durP1;ratioP1;P1;durP2;ratioP2;P2;SDS_P1;SDS_P2;PMS_P1;PMS_P2;Temp;Humidity;BMP_temperature;BMP_pressure;BME280_temperature;BME280_humidity;BME280_pressure;Samples;Min_cycle;Max_cycle;Signal;HPM_P1;HPM_P2
2022/11/30 00:02:24;;;;;;;10.20;6.72;;;;;;;8.14;100.00;100263.97;5011855;28;20089;-71
2022/11/30 00:04:49;;;;;;;10.98;6.80;;;;;;;8.15;100.00;100288.47;5012907;28;20087;-70
2022/11/30 00:07:15;;;;;;;9.85;6.72;;;;;;;7.74;100.00;100199.59;5013360;28;20832;-70
2022/11/30 00:09:40;;;;;;;11.30;8.00;;;;;;;8.26;100.00;100271.44;5012752;28;20029;-71
2022/11/30 00:12:06;;;;;;;10.80;7.45;;;;;;;8.18;100.00;100273.22;5012621;28;20034;-68
2022/11/30 00:14:31;;;;;;;11.35;7.90;;;;;;;8.11;100.00;100248.84;5012482;28;20056;-68
2022/11/30 00:16:57;;;;;;;14.60;9.60;;;;;;;8.10;100.00;100282.59;5012511;28;20038;-68
2022/11/30 00:19:22;;;;;;;12.10;8.77;;;;;;;8.18;100.00;100265.63;5011698;28;20181;-68
2022/11/30 00:21:48;;;;;;;12.60;8.95;;;;;;;8.16;100.00;100243.72;5012447;28;20133;-71
2022/11/30 00:24:13;;;;;;;11.45;8.48;;;;;;;8.09;100.00;100259.84;5013029;28;20053;-71
2022/11/30 00:26:39;;;;;;;10.57;8.05;;;;;;;7.96;100.00;100217.84;5012908;28;20026;-71
2022/11/30 00:29:05;;;;;;;11.20;8.75;;;;;;;8.16;100.00;100257.19;5012940;28;20492;-71
2022/11/30 00:31:30;;;;;;;12.45;8.38;;;;;;;8.06;100.00;100248.06;5012439;28;20030;-70
2022/11/30 00:33:55;;;;;;;11.82;8.55;;;;;;;7.90;100.00;100208.66;5012483;28;20033;-70
2022/11/30 00:36:21;;;;;;;13.05;8.88;;;;;;;8.14;100.00;100263.97;5012090;28;20041;-70
2022/11/30 00:38:48;;;;;;;13.77;9.23;;;;;;;8.25;100.00;100256.28;5012635;28;20107;-70
2022/11/30 00:41:14;;;;;;;10.80;8.85;;;;;;;8.27;100.00;100270.59;5012631;28;20037;-70
2022/11/30 00:43:39;;;;;;;13.85;9.52;;;;;;;8.17;100.00;100251.28;5012460;28;20030;-70
2022/11/30 00:46:05;;;;;;;14.52;10.18;;;;;;;7.67;100.00;100182.78;5012078;28;20108;-70
2022/11/30 00:48:31;;;;;;;13.98;9.80;;;;;;;8.11;100.00;100253.91;5010214;28;20041;-70
2022/11/30 00:50:56;;;;;;;16.40;11.00;;;;;;;7.97;100.00;100217.81;5011849;28;20522;-69
2022/11/30 00:53:22;;;;;;;12.80;9.93;;;;;;;7.81;100.00;100211.28;5010718;28;20117;-70
2022/11/30 00:55:48;;;;;;;17.42;11.23;;;;;;;8.25;100.00;100264.72;5012454;28;20032;-70
2022/11/30 00:58:14;;;;;;;16.30;12.27;;;;;;;8.20;100.00;100263.09;5010749;28;20190;-70
2022/11/30 01:00:40;;;;;;;17.52;12.32;;;;;;;8.16;100.00;100277.47;5010810;28;20041;-71
2022/11/30 01:03:05;;;;;;;17.40;11.40;;;;;;;7.89;100.00;100219.59;5012541;28;20083;-71
2022/11/30 01:05:34;;;;;;;16.13;12.73;;;;;;;8.12;100.00;100253.03;5011662;28;20469;-70
2022/11/30 01:08:01;;;;;;;18.27;12.77;;;;;;;8.14;100.00;100261.44;5012270;28;20431;-71
2022/11/30 01:10:26;;;;;;;16.08;12.93;;;;;;;8.09;100.00;100249.72;5011137;28;20119;-70
2022/11/30 01:12:52;;;;;;;17.23;12.48;;;;;;;8.19;100.00;100272.38;5012049;28;20116;-71
2022/11/30 01:15:18;;;;;;;16.92;12.45;;;;;;;8.13;100.00;100253.88;5012180;28;20485;-71
2022/11/30 01:17:43;;;;;;;19.23;12.80;;;;;;;8.19;100.00;100259.72;5011944;28;20037;-71
2022/11/30 01:20:09;;;;;;;18.08;13.23;;;;;;;8.19;100.00;100257.19;5011733;28;20477;-70
2022/11/30 01:22:35;;;;;;;20.52;15.65;;;;;;;8.09;100.00;100245.50;5010753;28;20143;-71
2022/11/30 01:25:01;;;;;;;25.38;19.10;;;;;;;8.06;100.00;100252.31;5011696;28;20045;-71
2022/11/30 01:27:26;;;;;;;24.35;17.73;;;;;;;8.01;100.00;100223.66;5011863;28;20042;-70
2022/11/30 01:29:52;;;;;;;20.98;15.38;;;;;;;8.12;100.00;100225.19;5011904;28;20095;-71
2022/11/30 01:32:17;;;;;;;18.90;14.15;;;;;;;7.82;100.00;100191.00;5010267;28;20071;-71
2022/11/30 01:34:42;;;;;;;18.15;14.70;;;;;;;7.89;100.00;100187.56;5011651;28;20030;-71
2022/11/30 01:37:08;;;;;;;18.42;14.65;;;;;;;7.93;100.00;100198.47;5011879;28;20176;-71
2022/11/30 01:39:33;;;;;;;18.50;14.70;;;;;;;7.86;100.00;100186.75;5011743;28;20413;-71
2022/11/30 01:41:58;;;;;;;18.48;14.68;;;;;;;8.07;100.00;100237.09;5011093;28;20467;-70
2022/11/30 01:44:27;;;;;;;18.17;14.40;;;;;;;8.08;100.00;100237.94;5011798;28;20026;-70
2022/11/30 01:47:01;;;;;;;21.30;14.68;;;;;;;8.18;100.00;100245.34;5011519;28;20119;-70
2022/11/30 01:49:29;;;;;;;18.63;13.93;;;;;;;8.15;100.00;100235.28;5011895;28;20389;-71
2022/11/30 01:52:00;;;;;;;18.02;13.45;;;;;;;8.12;100.00;100230.25;5011543;28;20037;-70
2022/11/30 01:54:32;;;;;;;18.92;13.15;;;;;;;7.75;100.00;100184.38;5011317;28;20442;-71
2022/11/30 01:57:10;;;;;;;13.95;11.73;;;;;;;7.92;100.00;100199.34;5010937;28;20041;-70
2022/11/30 01:59:36;;;;;;;15.38;11.20;;;;;;;7.63;100.00;100154.16;5010169;28;20037;-70
2022/11/30 02:02:01;;;;;;;14.40;11.00;;;;;;;7.95;100.00;100199.28;5011305;28;20037;-69
2022/11/30 02:04:30;;;;;;;14.43;10.50;;;;;;;8.12;100.00;100240.38;5009533;28;20046;-70
2022/11/30 02:06:57;;;;;;;14.63;10.20;;;;;;;8.10;100.00;100229.44;5011029;28;20505;-70
2022/11/30 02:09:24;;;;;;;13.57;9.00;;;;;;;7.70;100.00;100172.66;5009595;28;20029;-70
2022/11/30 02:11:50;;;;;;;15.38;10.00;;;;;;;7.99;100.00;100221.16;5010880;28;20026;-71
2022/11/30 02:14:42;;;;;;;16.52;9.85;;;;;;;7.61;100.00;100170.22;5010804;28;20038;-70
2022/11/30 02:17:26;;;;;;;;;;;;;;;7.98;100.00;100227.09;5011501;28;20038;-70
2022/11/30 02:20:25;;;;;;;11.13;7.05;;;;;;;7.99;100.00;100238.03;5010908;28;19920;-70
2022/11/30 02:23:19;;;;;;;11.25;6.40;;;;;;;7.93;100.00;100233.91;5011086;28;20033;-70
2022/11/30 02:26:04;;;;;;;12.00;5.72;;;;;;;7.63;100.00;100187.06;5010572;28;20087;-71
2022/11/30 02:28:51;;;;;;;9.07;4.55;;;;;;;7.86;100.00;100235.66;5010800;28;20033;-71
2022/11/30 02:31:22;;;;;;;9.50;5.40;;;;;;;7.87;100.00;100226.38;5010955;28;20108;-71
2022/11/30 02:33:50;;;;;;;8.82;5.07;;;;;;;7.86;100.00;100207.81;5010962;28;20034;-71
2022/11/30 02:36:17;;;;;;;10.88;5.20;;;;;;;8.02;100.00;100227.88;5009823;28;20034;-71
2022/11/30 02:38:43;;;;;;;10.88;5.90;;;;;;;7.69;100.00;100186.97;5010817;28;20133;-71
2022/11/30 02:41:08;;;;;;;8.02;5.15;;;;;;;7.96;100.00;100233.88;5009338;28;20113;-71
2022/11/30 02:43:34;;;;;;;6.78;5.07;;;;;;;7.88;100.00;100193.47;5009190;28;20093;-70
2022/11/30 02:46:15;;;;;;;8.32;6.05;;;;;;;8.19;100.00;100243.66;5010822;28;20044;-69
2022/11/30 02:48:52;;;;;;;9.50;5.90;;;;;;;8.08;100.00;100241.28;5010737;28;20588;-70
2022/11/30 02:51:21;;;;;;;11.20;6.78;;;;;;;7.99;100.00;100256.59;5010581;28;20034;-71
2022/11/30 02:53:47;;;;;;;9.57;4.32;;;;;;;7.93;100.00;100249.09;5010406;28;20073;-70
2022/11/30 02:56:12;;;;;;;9.82;5.15;;;;;;;7.82;100.00;100236.56;5010669;28;20065;-70
2022/11/30 02:58:38;;;;;;;5.22;3.60;;;;;;;7.61;100.00;100198.03;5010320;28;20053;-71
2022/11/30 03:01:04;;;;;;;5.57;3.63;;;;;;;7.86;100.00;100245.78;5008919;28;20398;-71
2022/11/30 03:03:29;;;;;;;4.20;2.65;;;;;;;7.40;100.00;100176.41;5009354;28;20034;-70
2022/11/30 03:05:55;;;;;;;4.75;2.78;;;;;;;7.56;100.00;100220.03;5009125;28;20052;-70
2022/11/30 03:08:20;;;;;;;4.57;2.97;;;;;;;7.63;100.00;100226.69;5010055;28;20522;-70
2022/11/30 03:10:46;;;;;;;10.27;2.85;;;;;;;7.89;100.00;100262.63;5012530;28;20026;-71
2022/11/30 03:13:11;;;;;;;4.18;2.75;;;;;;;7.81;100.00;100229.84;5014767;28;20053;-71
2022/11/30 03:15:37;;;;;;;2.90;2.13;;;;;;;7.69;100.00;100211.44;5014549;28;20041;-70
2022/11/30 03:18:03;;;;;;;4.45;2.70;;;;;;;7.84;100.00;100260.16;5014482;28;20030;-71
2022/11/30 03:20:28;;;;;;;4.35;2.63;;;;;;;7.87;100.00;100264.34;5013968;28;20037;-71
2022/11/30 03:22:57;;;;;;;4.85;2.30;;;;;;;7.55;100.00;100219.19;5012861;28;20049;-71
2022/11/30 03:25:23;;;;;;;3.13;2.45;;;;;;;7.76;100.00;100261.13;5014070;28;20030;-71
2022/11/30 03:27:48;;;;;;;2.88;2.00;;;;;;;7.39;100.00;100181.47;5013237;28;20124;-72
2022/11/30 03:30:13;;;;;;;3.63;2.40;;;;;;;7.88;100.00;100266.03;5012392;28;20456;-70
2022/11/30 03:32:39;;;;;;;3.00;2.30;;;;;;;7.63;100.00;100230.06;5013265;28;20534;-70
2022/11/30 03:35:05;;;;;;;4.15;2.60;;;;;;;7.84;100.00;100270.28;5014719;28;20030;-71
2022/11/30 03:37:30;;;;;;;4.97;2.83;;;;;;;7.83;100.00;100272.84;5014234;28;20109;-71
2022/11/30 03:39:55;;;;;;;4.30;2.97;;;;;;;7.82;100.00;100268.66;5013316;28;20077;-71
2022/11/30 03:42:21;;;;;;;4.75;3.30;;;;;;;7.82;100.00;100273.72;5013472;28;20119;-70
2022/11/30 03:44:46;;;;;;;4.55;2.90;;;;;;;7.20;100.00;100188.44;5013340;28;20435;-68
2022/11/30 03:47:11;;;;;;;3.15;2.33;;;;;;;7.60;100.00;100263.00;5013450;28;20477;-70
2022/11/30 03:49:37;;;;;;;3.47;2.60;;;;;;;7.20;100.00;100187.59;5013787;28;20030;-70
2022/11/30 03:52:02;;;;;;;5.07;2.67;;;;;;;7.83;100.00;100273.69;5011986;28;20033;-70
2022/11/30 03:54:28;;;;;;;4.15;2.60;;;;;;;7.44;100.00;100226.09;5012976;28;20041;-70
2022/11/30 03:56:53;;;;;;;3.00;2.22;;;;;;;7.43;100.00;100226.94;5013036;28;20608;-70
2022/11/30 03:59:18;;;;;;;3.20;2.50;;;;;;;7.38;100.00;100216.03;5013118;28;20030;-69
2022/11/30 04:01:44;;;;;;;5.68;2.75;;;;;;;7.68;100.00;100276.41;5012999;28;20038;-70
2022/11/30 04:04:11;;;;;;;3.28;2.45;;;;;;;7.49;100.00;100236.13;5013404;28;20468;-70
2022/11/30 04:06:36;;;;;;;3.60;2.70;;;;;;;7.78;100.00;100279.66;5013430;28;20408;-71
2022/11/30 04:09:02;;;;;;;6.95;4.97;;;;;;;7.85;100.00;100292.22;5012970;28;20030;-68
2022/11/30 04:11:28;;;;;;;19.70;14.73;;;;;;;7.71;100.00;100255.28;5013284;28;20033;-68
2022/11/30 04:13:54;;;;;;;43.53;33.35;;;;;;;7.89;100.00;100291.31;5012251;28;20041;-69
2022/11/30 04:16:19;;;;;;;28.85;22.70;;;;;;;7.98;100.00;100287.84;5013368;28;20034;-69
2022/11/30 04:18:44;;;;;;;13.68;10.07;;;;;;;7.82;100.00;100294.75;5013235;28;20036;-71
2022/11/30 04:21:10;;;;;;;7.45;5.22;;;;;;;7.96;100.00;100309.81;5012237;28;20121;-69
2022/11/30 04:23:38;;;;;;;4.97;4.45;;;;;;;8.02;100.00;100304.69;5012639;28;20040;-71
2022/11/30 04:26:05;;;;;;;6.32;4.43;;;;;;;8.03;100.00;100324.06;5012764;28;20034;-71
2022/11/30 04:28:31;;;;;;;7.30;6.10;;;;;;;7.70;100.00;100268.78;5012478;28;20121;-69
2022/11/30 04:30:56;;;;;;;5.55;4.32;;;;;;;8.06;100.00;100313.06;5011642;28;20469;-68
2022/11/30 04:33:22;;;;;;;5.45;4.47;;;;;;;8.22;100.00;100295.09;5011324;28;20426;-68
2022/11/30 04:35:53;;;;;;;5.93;4.40;;;;;;;7.88;100.00;100312.41;5012501;28;20128;-70
2022/11/30 04:38:18;;;;;;;6.88;5.43;;;;;;;7.73;100.00;100282.22;5012212;28;20030;-68
2022/11/30 04:40:44;;;;;;;6.35;5.00;;;;;;;7.88;100.00;100302.28;5010637;28;20037;-68
2022/11/30 04:43:11;;;;;;;4.90;3.90;;;;;;;7.52;100.00;100279.09;5003536;28;20056;-68
2022/11/30 04:45:38;;;;;;;3.95;3.10;;;;;;;7.85;100.00;100329.34;5010860;28;20517;-68
2022/11/30 04:48:05;;;;;;;3.47;2.70;;;;;;;7.76;100.00;100319.31;5011966;28;20033;-67
2022/11/30 04:50:30;;;;;;;3.95;2.50;;;;;;;7.74;100.00;100323.56;5010792;28;20030;-67
2022/11/30 04:52:56;;;;;;;3.03;2.30;;;;;;;7.44;100.00;100237.88;5010778;28;20033;-69
2022/11/30 04:55:23;;;;;;;3.47;2.88;;;;;;;7.84;100.00;100337.78;5012211;28;20044;-70
2022/11/30 04:57:48;;;;;;;3.55;2.83;;;;;;;7.80;100.00;100306.59;5011280;28;20046;-68
2022/11/30 05:00:15;;;;;;;4.90;3.00;;;;;;;7.83;100.00;100328.50;5011333;28;20088;-68
2022/11/30 05:02:41;;;;;;;4.82;3.25;;;;;;;7.88;100.00;100335.19;5012506;28;20532;-68
2022/11/30 05:05:07;;;;;;;4.25;3.70;;;;;;;7.73;100.00;100311.75;5011976;28;20034;-68
2022/11/30 05:07:33;;;;;;;4.32;3.55;;;;;;;7.95;100.00;100343.56;5009985;28;20025;-68
2022/11/30 05:09:58;;;;;;;4.35;3.80;;;;;;;7.96;100.00;100325.00;5011758;28;20056;-68
2022/11/30 05:12:23;;;;;;;4.93;4.10;;;;;;;7.92;100.00;100325.06;5010323;28;20026;-68
2022/11/30 05:14:49;;;;;;;5.88;4.10;;;;;;;8.11;100.00;100350.13;5011438;28;20029;-67
2022/11/30 05:17:14;;;;;;;5.35;4.40;;;;;;;7.92;100.00;100353.75;5009605;28;20026;-69
2022/11/30 05:19:40;;;;;;;6.57;4.45;;;;;;;7.55;100.00;100305.22;5011549;28;20514;-69
2022/11/30 05:22:05;;;;;;;5.65;3.70;;;;;;;7.55;100.00;100319.53;5011856;28;20455;-68
2022/11/30 05:24:31;;;;;;;5.60;4.40;;;;;;;7.96;100.00;100340.19;5011747;28;20472;-68
2022/11/30 05:26:56;;;;;;;4.35;3.40;;;;;;;7.61;100.00;100307.66;5011786;28;20037;-68
2022/11/30 05:29:22;;;;;;;4.47;3.30;;;;;;;7.87;100.00;100350.41;5011538;28;20044;-68
2022/11/30 05:31:47;;;;;;;6.28;5.25;;;;;;;7.79;100.00;100352.19;5011203;28;20049;-68
2022/11/30 05:34:12;;;;;;;10.80;7.50;;;;;;;7.75;100.00;100312.56;5010871;28;20198;-68
2022/11/30 05:36:38;;;;;;;10.10;7.90;;;;;;;8.06;100.00;100353.56;5011035;28;20030;-68
2022/11/30 05:39:04;;;;;;;10.07;7.75;;;;;;;7.91;100.00;100357.09;5010962;28;20109;-68
2022/11/30 05:41:29;;;;;;;7.82;5.90;;;;;;;7.37;100.00;100275.03;5011235;28;20099;-67
2022/11/30 05:43:55;;;;;;;8.43;6.30;;;;;;;7.78;100.00;100320.97;5010865;28;20034;-67
2022/11/30 05:46:20;;;;;;;9.73;7.45;;;;;;;7.58;100.00;100307.72;5011045;28;20033;-68
2022/11/30 05:48:46;;;;;;;10.32;7.63;;;;;;;7.96;100.00;100359.59;5011390;28;20044;-67
2022/11/30 05:51:14;;;;;;;14.18;10.75;;;;;;;8.00;100.00;100357.03;5011141;28;20033;-68
2022/11/30 05:53:40;;;;;;;13.80;9.35;;;;;;;8.19;100.00;100358.47;5009731;28;20037;-67
2022/11/30 05:56:11;;;;;;;16.38;8.82;;;;;;;7.98;100.00;100376.44;5010038;28;20786;-67
2022/11/30 05:58:37;;;;;;;13.38;9.20;;;;;;;7.87;100.00;100346.19;5010585;28;20030;-67
2022/11/30 06:01:03;;;;;;;13.07;10.00;;;;;;;8.06;100.00;100369.56;5009980;28;20056;-67
2022/11/30 06:03:29;;;;;;;13.95;10.35;;;;;;;8.01;100.00;100384.00;5007825;28;20050;-69
2022/11/30 06:05:54;;;;;;;14.27;11.35;;;;;;;7.77;100.00;100342.06;5000682;28;20036;-68
2022/11/30 06:08:20;;;;;;;18.02;14.70;;;;;;;7.92;100.00;100370.59;4995805;28;20034;-70
2022/11/30 06:10:46;;;;;;;17.10;13.68;;;;;;;8.05;100.00;100385.63;4990922;28;20026;-69
2022/11/30 06:13:12;;;;;;;20.65;15.65;;;;;;;7.63;100.00;100333.78;4990863;28;20085;-68
2022/11/30 06:15:41;;;;;;;19.48;15.77;;;;;;;7.55;100.00;100309.41;5001366;28;20038;-69
2022/11/30 06:18:08;;;;;;;27.65;20.95;;;;;;;7.65;100.00;100344.72;5025634;28;20088;-70
2022/11/30 06:20:33;;;;;;;27.15;20.58;;;;;;;7.98;100.00;100404.28;4658854;28;9999641;-69
2022/11/30 06:22:59;;;;;;;28.88;22.58;;;;;;;8.00;100.00;100384.03;5005523;28;20069;-69
2022/11/30 06:25:25;;;;;;;30.00;23.20;;;;;;;7.46;100.00;100324.69;5007281;28;20173;-68
2022/11/30 06:27:51;;;;;;;22.08;17.80;;;;;;;7.87;100.00;100406.09;5004875;28;20037;-69
2022/11/30 06:30:17;;;;;;;18.75;13.90;;;;;;;7.51;100.00;100330.53;4996655;28;20038;-70
2022/11/30 06:32:50;;;;;;;15.65;12.23;;;;;;;7.52;100.00;100357.53;4991235;28;20100;-69
2022/11/30 06:35:17;;;;;;;11.60;8.07;;;;;;;7.83;100.00;100412.03;5005488;28;20026;-69
2022/11/30 06:37:43;;;;;;;10.98;8.70;;;;;;;7.90;100.00;100413.66;5005964;28;20100;-68
2022/11/30 06:40:10;;;;;;;8.98;6.38;;;;;;;7.52;100.00;100377.75;5005591;28;20050;-69
2022/11/30 06:42:37;;;;;;;6.30;4.85;;;;;;;7.83;100.00;100420.47;5006458;28;20026;-69
2022/11/30 06:45:03;;;;;;;10.48;7.47;;;;;;;7.70;100.00;100410.47;4996539;28;20134;-69
2022/11/30 06:47:28;;;;;;;16.92;10.82;;;;;;;7.50;100.00;100360.06;4993229;28;20422;-68
2022/11/30 06:49:54;;;;;;;24.95;15.35;;;;;;;7.43;100.00;100345.78;4999145;28;20498;-69
2022/11/30 06:52:19;;;;;;;12.30;7.82;;;;;;;7.32;100.00;100334.94;4991213;28;20840;-69
2022/11/30 06:54:45;;;;;;;10.98;7.78;;;;;;;7.52;100.00;100368.50;4996524;28;20046;-69
2022/11/30 06:57:10;;;;;;;32.55;21.75;;;;;;;6.91;100.00;100291.50;5010895;28;20041;-69
2022/11/30 06:59:36;;;;;;;36.67;27.52;;;;;;;7.25;100.00;100337.56;4991202;28;20038;-70
2022/11/30 07:02:02;;;;;;;30.38;22.25;;;;;;;7.17;100.00;100339.31;4999968;28;20038;-69
2022/11/30 07:04:27;;;;;;;43.25;29.00;;;;;;;7.25;100.00;100356.06;4991423;28;20533;-69
2022/11/30 07:06:53;;;;;;;39.08;29.98;;;;;;;7.35;100.00;100372.84;4990660;28;20030;-70
2022/11/30 07:09:18;;;;;;;30.83;23.38;;;;;;;7.65;100.00;100390.28;4990657;28;20057;-69
2022/11/30 07:11:43;;;;;;;25.20;19.52;;;;;;;7.41;100.00;100360.16;4992295;28;20030;-69
2022/11/30 07:14:09;;;;;;;23.35;15.38;;;;;;;7.70;100.00;100398.69;5009754;28;20042;-70
2022/11/30 07:16:34;;;;;;;14.05;9.73;;;;;;;7.33;100.00;100368.66;5009833;28;20034;-69
2022/11/30 07:19:00;;;;;;;14.90;9.70;;;;;;;7.62;100.00;100420.69;5004948;28;20033;-69
2022/11/30 07:21:25;;;;;;;16.95;8.63;;;;;;;7.49;100.00;100378.63;4991829;28;20044;-70
2022/11/30 07:26:34;;;;;;;38.67;24.10;;;;;;;7.86;100.00;100429.72;5005733;28;20044;-68
2022/11/30 07:29:00;;;;;;;73.97;33.53;;;;;;;8.95;100.00;100413.22;5007967;28;20037;-73
2022/11/30 07:31:27;;;;;;;30.33;17.35;;;;;;;10.28;100.00;100407.53;4998964;28;20173;-75
2022/11/30 07:33:54;;;;;;;33.70;23.27;;;;;;;8.27;100.00;100416.66;5010504;28;20144;-73
2022/11/30 07:36:21;;;;;;;24.33;18.60;;;;;;;8.01;100.00;100416.06;4994079;28;20048;-71
2022/11/30 07:38:47;;;;;;;27.33;20.80;;;;;;;7.72;100.00;100391.06;5010535;28;20632;-71
2022/11/30 07:41:12;;;;;;;16.25;12.57;;;;;;;7.65;100.00;100412.19;5011372;28;20120;-71
2022/11/30 07:43:38;;;;;;;15.93;12.52;;;;;;;7.62;100.00;100364.19;5009647;28;20025;-72
2022/11/30 07:46:04;;;;;;;19.58;12.93;;;;;;;7.82;100.00;100363.09;5009986;28;20064;-71
2022/11/30 07:48:30;;;;;;;25.00;14.88;;;;;;;8.84;100.00;100356.75;5010665;28;20484;-70
2022/11/30 07:51:08;;;;;;;20.95;16.63;;;;;;;7.98;100.00;100373.06;5009243;28;20041;-71
2022/11/30 07:53:34;;;;;;;27.92;20.88;;;;;;;8.00;100.00;100416.94;5010843;28;20033;-71
2022/11/30 07:56:05;;;;;;;34.35;23.75;;;;;;;7.80;100.00;100367.34;5010375;28;20037;-71
2022/11/30 07:58:31;;;;;;;37.08;26.27;;;;;;;7.67;100.00;100398.69;5010309;28;20022;-70
2022/11/30 08:01:01;;;;;;;31.23;22.35;;;;;;;7.48;100.00;100353.34;5010107;28;20037;-70
2022/11/30 08:03:27;;;;;;;25.92;18.67;;;;;;;7.43;100.00;100360.13;5009881;28;20519;-70
2022/11/30 08:05:52;;;;;;;19.63;13.07;;;;;;;7.81;100.00;100399.41;5010242;28;20034;-71
2022/11/30 08:08:17;;;;;;;12.18;9.35;;;;;;;7.61;100.00;100381.03;5010254;28;20125;-71
2022/11/30 08:10:43;;;;;;;35.95;25.33;;;;;;;7.87;100.00;100401.03;4995363;28;20452;-71
2022/11/30 08:13:08;;;;;;;43.90;30.60;;;;;;;7.61;100.00;100390.31;4999166;28;20067;-71
2022/11/30 08:15:33;;;;;;;58.88;31.10;;;;;;;8.41;100.00;100402.13;5009089;28;20109;-71
2022/11/30 08:18:04;;;;;;;9.57;6.38;;;;;;;7.44;100.00;100364.34;5010030;28;20042;-72
2022/11/30 08:20:29;;;;;;;9.63;6.40;;;;;;;7.39;100.00;100366.09;4663264;28;10000427;-72
2022/11/30 08:22:54;;;;;;;7.85;5.57;;;;;;;7.39;100.00;100371.16;5010304;28;20493;-72
2022/11/30 08:25:20;;;;;;;10.20;6.75;;;;;;;7.66;100.00;100411.38;5008662;28;20036;-71
2022/11/30 08:27:45;;;;;;;14.13;9.10;;;;;;;7.51;100.00;100360.91;5009910;28;20038;-71
2022/11/30 08:30:11;;;;;;;10.52;7.20;;;;;;;8.09;100.00;100420.19;5011360;28;20532;-71
2022/11/30 08:32:36;;;;;;;13.50;8.45;;;;;;;7.73;100.00;100357.31;5009505;28;20587;-71
2022/11/30 08:35:02;;;;;;;9.13;7.05;;;;;;;7.71;100.00;100409.63;5010451;28;20030;-70
2022/11/30 08:37:27;;;;;;;9.32;6.30;;;;;;;8.09;100.00;100417.66;5008467;28;20036;-70
2022/11/30 08:39:53;;;;;;;10.48;7.15;;;;;;;7.91;100.00;100357.09;5009227;28;20054;-71
2022/11/30 08:42:18;;;;;;;10.02;7.40;;;;;;;7.85;100.00;100388.38;5009545;28;20084;-70
2022/11/30 08:44:43;;;;;;;10.32;7.50;;;;;;;7.66;100.00;100358.22;5009640;28;20096;-71
2022/11/30 08:47:09;;;;;;;11.00;7.97;;;;;;;7.72;100.00;100361.53;5009729;28;20034;-71
2022/11/30 08:49:34;;;;;;;12.40;8.95;;;;;;;7.67;100.00;100403.75;5007860;28;20058;-70
2022/11/30 08:52:00;;;;;;;11.70;8.60;;;;;;;7.91;100.00;100377.34;5009961;28;20497;-70
2022/11/30 08:54:26;;;;;;;9.10;7.68;;;;;;;7.92;100.00;100389.16;5007888;28;20038;-70
2022/11/30 08:56:51;;;;;;;10.23;7.50;;;;;;;8.05;100.00;100398.28;5009470;28;20036;-69
2022/11/30 08:59:17;;;;;;;10.55;7.65;;;;;;;7.88;100.00;100368.09;5009664;28;20033;-69
2022/11/30 09:01:42;;;;;;;11.90;8.60;;;;;;;7.96;100.00;100378.16;5008455;28;20440;-67
2022/11/30 09:04:07;;;;;;;18.08;9.40;;;;;;;8.24;100.00;100361.75;5008387;28;20068;-68
2022/11/30 09:06:33;;;;;;;14.52;11.23;;;;;;;7.94;100.00;100379.88;5007995;28;20133;-67
2022/11/30 09:08:58;;;;;;;15.75;12.30;;;;;;;7.88;100.00;100385.00;5008155;28;20032;-69
2022/11/30 09:11:25;;;;;;;12.95;10.07;;;;;;;8.01;100.00;100386.53;5007748;28;20124;-69
2022/11/30 09:13:53;;;;;;;13.23;9.10;;;;;;;7.94;100.00;100362.16;5008806;28;20038;-69
2022/11/30 09:16:19;;;;;;;10.60;8.48;;;;;;;7.83;100.00;100347.06;5009703;28;20095;-69
2022/11/30 09:18:48;;;;;;;9.50;8.35;;;;;;;7.66;100.00;100340.53;5008182;28;20030;-69
2022/11/30 09:21:16;;;;;;;10.75;7.05;;;;;;;7.99;100.00;100370.50;5008711;28;20949;-69
2022/11/30 09:23:42;;;;;;;11.15;8.60;;;;;;;8.18;100.00;100366.91;5008745;28;20547;-70
2022/11/30 09:26:10;;;;;;;13.60;8.43;;;;;;;8.25;100.00;100372.78;5008915;28;20030;-70
2022/11/30 09:28:37;;;;;;;12.60;8.88;;;;;;;8.20;100.00;100352.53;5008925;28;20044;-69
2022/11/30 09:31:09;;;;;;;352.65;288.00;;;;;;;8.64;100.00;100367.19;5007362;28;20438;-69
2022/11/30 09:33:35;;;;;;;19.88;14.00;;;;;;;8.37;100.00;100375.16;5007437;28;20467;-69
2022/11/30 09:36:03;;;;;;;46.70;35.00;;;;;;;8.73;100.00;100354.41;5008575;28;20030;-68
2022/11/30 09:38:28;;;;;;;29.80;16.90;;;;;;;8.54;100.00;100366.47;5007763;28;20054;-70
2022/11/30 09:41:00;;;;;;;12.32;8.70;;;;;;;8.43;100.00;100363.25;5009523;28;20120;-72
2022/11/30 09:43:38;;;;;;;;;;;;;;;8.40;100.00;100370.88;5008816;28;20041;-71
2022/11/30 09:46:05;;;;;;;16.75;10.80;;;;;;;8.07;100.00;100297.84;5007987;28;19924;-70
2022/11/30 09:48:49;;;;;;;21.77;15.25;;;;;;;8.49;100.00;100365.72;5008318;28;20033;-71
2022/11/30 09:51:21;;;;;;;26.58;17.95;;;;;;;8.39;100.00;100364.16;5008829;28;20088;-70
2022/11/30 09:54:01;;;;;;;19.77;14.52;;;;;;;8.45;100.00;100360.69;5008709;28;20556;-70
2022/11/30 09:56:31;;;;;;;13.63;10.10;;;;;;;8.49;100.00;100365.72;5007767;28;20049;-71
2022/11/30 09:59:11;;;;;;;13.38;10.98;;;;;;;8.57;100.00;100366.44;5024372;28;20037;-70
2022/11/30 10:01:37;;;;;;;52.70;34.42;;;;;;;8.25;100.00;100312.00;5008267;28;20038;-70
2022/11/30 10:04:02;;;;;;;13.55;11.18;;;;;;;8.34;100.00;100310.16;5007886;28;20091;-70
2022/11/30 10:07:00;;;;;;;29.08;22.45;;;;;;;8.26;100.00;100289.16;5006763;28;20034;-70
2022/11/30 10:09:44;;;;;;;52.60;38.83;;;;;;;8.61;100.00;100350.34;4986355;28;20038;-74
2022/11/30 10:12:16;;;;;;;26.38;20.00;;;;;;;8.47;100.00;100357.28;5018209;28;20045;-69
2022/11/30 10:14:47;;;;;;;9.82;6.45;;;;;;;8.49;100.00;100359.81;5006405;28;20061;-70
2022/11/30 10:17:29;;;;;;;10.30;7.57;;;;;;;8.67;100.00;100351.94;5003590;28;20100;-69
2022/11/30 10:20:12;;;;;;;25.42;21.40;;;;;;;8.77;100.00;100342.50;4996438;28;20104;-70
2022/11/30 10:22:59;;;;;;;27.92;24.80;;;;;;;8.63;100.00;100346.09;5001670;28;20499;-69
2022/11/30 10:25:39;;;;;;;20.85;16.92;;;;;;;8.39;100.00;100308.44;4998861;28;20057;-69
2022/11/30 10:28:46;;;;;;;22.08;15.32;;;;;;;8.61;100.00;100347.81;5007773;28;20088;-68
2022/11/30 10:31:13;;;;;;;23.77;18.60;;;;;;;8.46;100.00;100307.47;4979409;28;20092;-69
2022/11/30 10:33:50;;;;;;;26.60;20.88;;;;;;;8.77;100.00;100339.97;5004464;28;20057;-69
2022/11/30 10:36:39;;;;;;;27.40;22.30;;;;;;;8.77;100.00;100332.38;5006388;28;20084;-69
2022/11/30 10:39:15;;;;;;;23.35;16.85;;;;;;;8.71;100.00;100339.19;5006191;28;20541;-69
2022/11/30 10:41:49;;;;;;;32.75;15.60;;;;;;;8.85;100.00;100320.41;5005535;28;20504;-69
2022/11/30 10:44:27;;;;;;;327.95;216.82;;;;;;;9.11;100.00;100336.88;5005107;28;20045;-69
2022/11/30 10:47:05;;;;;;;23.98;19.67;;;;;;;8.53;100.00;100278.66;5006340;28;20041;-69
2022/11/30 10:49:32;;;;;;;23.98;18.55;;;;;;;8.61;100.00;100336.81;5004425;28;20163;-70
2022/11/30 10:52:05;;;;;;;38.83;30.35;;;;;;;8.96;100.00;100323.59;5004678;28;20037;-70
2022/11/30 10:54:33;;;;;;;20.98;16.23;;;;;;;8.67;100.00;100321.53;4988519;28;20039;-70
2022/11/30 10:57:01;;;;;;;19.92;16.33;;;;;;;8.88;100.00;100325.44;4987932;28;20113;-71
2022/11/30 10:59:47;;;;;;;17.17;14.43;;;;;;;8.86;100.00;100339.81;4989184;28;20037;-70
2022/11/30 11:02:39;;;;;;;16.95;13.05;;;;;;;8.91;100.00;100335.53;4988966;28;20038;-70
2022/11/30 11:05:23;;;;;;;40.47;36.08;;;;;;;8.73;100.00;100317.19;4988248;28;20030;-68
2022/11/30 11:07:50;;;;;;;60.08;50.75;;;;;;;8.89;100.00;100325.44;4991395;28;20030;-69
2022/11/30 11:10:18;;;;;;;53.47;47.10;;;;;;;8.83;100.00;100324.69;5007685;28;20116;-69
2022/11/30 11:12:52;;;;;;;53.10;45.25;;;;;;;8.39;100.00;100242.56;5007197;28;20135;-69
2022/11/30 11:15:27;;;;;;;41.40;36.95;;;;;;;8.50;100.00;100247.44;5008260;28;20038;-70
2022/11/30 11:18:24;;;;;;;29.58;25.63;;;;;;;8.99;100.00;100339.63;5009261;28;20057;-69
2022/11/30 11:21:19;;;;;;;30.45;24.02;;;;;;;8.81;100.00;100293.44;5006958;28;20038;-70
2022/11/30 11:23:46;;;;;;;28.58;21.27;;;;;;;8.63;100.00;100330.03;5004931;28;20050;-70
2022/11/30 11:26:21;;;;;;;23.25;19.90;;;;;;;8.61;100.00;100299.66;5008552;28;20034;-70